< < Back
Terminal Aerodrome Forecast


Current Version              Previous Versions:   1  2  3  4  5  6  7  8  9  

Terminal Aerodrome Forecast

394
FTUS42 KTAE 292320
TAFTLH
TAF
KTLH 292320Z 3000/3024 00000KT P6SM FEW080
     FM301400 33005KT P6SM SCT040
     FM301900 34007KT P6SM VCTS SCT060CB=

Latest METAR

445
SAUS80 KWBC 301600 RRB
MTRTLH
METAR KTLH 301553Z 34006KT 10SM FEW040 SCT250 34/17 A2999 RMK AO2 SLP155
T03390172


USA.gov is the U.S. government's official web portal to all federal, state and local government web resources and services.